Time;durP1;ratioP1;P1;durP2;ratioP2;P2;SDS_P1;SDS_P2;PMS_P1;PMS_P2;Temp;Humidity;BMP_temperature;BMP_pressure;BME280_temperature;BME280_humidity;BME280_pressure;Samples;Min_cycle;Max_cycle;Signal;HPM_P1;HPM_P2
2023/12/17 00:01:19;;;;;;;19.10;10.55;;;;;;;;;;5021586;28;20203;-65
2023/12/17 00:03:47;;;;;;;14.23;9.48;;;;;;;;;;4988886;28;20205;-65
2023/12/17 00:06:15;;;;;;;17.00;10.88;;;;;;;;;;5003678;28;20208;-66
2023/12/17 00:08:43;;;;;;;30.38;17.73;;;;;;;;;;5004748;28;20583;-65
2023/12/17 00:11:13;;;;;;;25.52;18.35;;;;;;;;;;5014892;28;20220;-65
2023/12/17 00:13:41;;;;;;;26.63;15.57;;;;;;;;;;4993007;28;20693;-66
2023/12/17 00:16:10;;;;;;;32.25;16.77;;;;;;;;;;5005394;28;20225;-65
2023/12/17 00:18:38;;;;;;;22.55;15.02;;;;;;;;;;4998053;28;20199;-65
2023/12/17 00:21:07;;;;;;;23.00;14.95;;;;;;;;;;5022184;28;20190;-65
2023/12/17 00:23:35;;;;;;;25.20;14.77;;;;;;;;;;4996751;28;20392;-65
2023/12/17 00:26:03;;;;;;;28.73;16.30;;;;;;;;;;5010583;28;20193;-65
2023/12/17 00:28:33;;;;;;;23.70;13.48;;;;;;;;;;5002763;28;20199;-65
2023/12/17 00:31:01;;;;;;;20.70;12.52;;;;;;;;;;4991123;28;20238;-65
2023/12/17 00:33:29;;;;;;;19.52;12.82;;;;;;;;;;4991608;28;20210;-65
2023/12/17 00:35:57;;;;;;;27.88;17.15;;;;;;;;;;4991391;28;20282;-65
2023/12/17 00:38:26;;;;;;;28.45;15.60;;;;;;;;;;4991127;28;20254;-65
2023/12/17 00:40:54;;;;;;;19.55;12.80;;;;;;;;;;5001696;28;20231;-65
2023/12/17 00:43:22;;;;;;;21.33;15.00;;;;;;;;;;4991516;28;20209;-64
2023/12/17 00:45:51;;;;;;;25.42;15.68;;;;;;;;;;5008910;28;20198;-65
2023/12/17 00:48:20;;;;;;;22.23;13.30;;;;;;;;;;5009112;28;20209;-65
2023/12/17 00:50:48;;;;;;;25.60;14.68;;;;;;;;;;4999007;28;20578;-65
2023/12/17 00:53:16;;;;;;;23.80;15.60;;;;;;;;;;4991070;28;20628;-65
2023/12/17 00:55:44;;;;;;;22.63;15.60;;;;;;;;;;5007204;28;20204;-65
2023/12/17 00:58:13;;;;;;;21.85;16.45;;;;;;;;;;5010538;28;20597;-65
2023/12/17 01:00:41;;;;;;;21.98;13.77;;;;;;;;;;4998664;28;20209;-66
2023/12/17 01:03:10;;;;;;;18.17;12.63;;;;;;;;;;4991567;28;20272;-65
2023/12/17 01:05:38;;;;;;;16.45;12.68;;;;;;;;;;4979006;28;20209;-65
2023/12/17 01:08:07;;;;;;;20.02;13.70;;;;;;;;;;5006366;28;20202;-65
2023/12/17 01:10:35;;;;;;;20.73;13.68;;;;;;;;;;4998729;28;20268;-65
2023/12/17 01:13:04;;;;;;;22.52;13.10;;;;;;;;;;4994283;28;20717;-65
2023/12/17 01:15:32;;;;;;;22.70;15.43;;;;;;;;;;4982847;28;20202;-65
2023/12/17 01:18:00;;;;;;;18.52;12.75;;;;;;;;;;4991749;28;20207;-65
2023/12/17 01:20:30;;;;;;;20.15;13.35;;;;;;;;;;4996760;28;20661;-65
2023/12/17 01:22:58;;;;;;;17.05;13.15;;;;;;;;;;5009895;28;20195;-65
2023/12/17 01:25:26;;;;;;;18.42;14.13;;;;;;;;;;5001616;28;20678;-65
2023/12/17 01:27:54;;;;;;;22.50;14.55;;;;;;;;;;4996827;28;20207;-65
2023/12/17 01:30:22;;;;;;;22.80;13.68;;;;;;;;;;5009702;28;20196;-66
2023/12/17 01:32:51;;;;;;;26.23;13.10;;;;;;;;;;5082571;28;20229;-67
2023/12/17 01:35:19;;;;;;;19.10;13.90;;;;;;;;;;4994293;28;20624;-65
2023/12/17 01:37:48;;;;;;;21.40;14.65;;;;;;;;;;5009657;28;20206;-65
2023/12/17 01:40:17;;;;;;;26.27;14.68;;;;;;;;;;5008025;28;20237;-65
2023/12/17 01:42:45;;;;;;;23.70;14.40;;;;;;;;;;5007826;28;20198;-65
2023/12/17 01:45:13;;;;;;;23.52;13.98;;;;;;;;;;5006733;28;20218;-65
2023/12/17 01:47:41;;;;;;;22.27;15.07;;;;;;;;;;5012227;28;20566;-65
2023/12/17 01:50:10;;;;;;;26.83;14.98;;;;;;;;;;4991403;28;20653;-65
2023/12/17 01:52:38;;;;;;;23.50;15.00;;;;;;;;;;5008598;28;20644;-65
2023/12/17 01:55:09;;;;;;;24.58;15.80;;;;;;;;;;4989932;28;20235;-66
2023/12/17 01:57:37;;;;;;;27.65;15.45;;;;;;;;;;5000716;28;20191;-66
2023/12/17 02:00:06;;;;;;;28.33;15.00;;;;;;;;;;5009071;28;20641;-66
2023/12/17 02:02:37;;;;;;;27.05;16.27;;;;;;;;;;5007776;28;20226;-68
2023/12/17 02:05:06;;;;;;;29.48;15.50;;;;;;;;;;5025927;28;20229;-66
2023/12/17 02:07:34;;;;;;;26.40;15.30;;;;;;;;;;5019733;28;20677;-68
2023/12/17 02:10:02;;;;;;;28.52;16.98;;;;;;;;;;5019796;28;20237;-68
2023/12/17 02:12:32;;;;;;;21.98;15.63;;;;;;;;;;5022193;28;21432;-67
2023/12/17 02:15:00;;;;;;;25.23;15.10;;;;;;;;;;5025188;28;20244;-68
2023/12/17 02:17:29;;;;;;;26.23;16.05;;;;;;;;;;5021030;28;20229;-68
2023/12/17 02:19:58;;;;;;;23.70;14.50;;;;;;;;;;5008289;28;20292;-68
2023/12/17 02:22:27;;;;;;;22.92;13.52;;;;;;;;;;5023228;28;20225;-67
2023/12/17 02:24:57;;;;;;;19.75;12.90;;;;;;;;;;5011778;28;20218;-68
2023/12/17 02:27:25;;;;;;;20.60;13.38;;;;;;;;;;5015329;28;20233;-68
2023/12/17 02:29:54;;;;;;;19.27;13.60;;;;;;;;;;5028099;28;20229;-67
2023/12/17 02:32:23;;;;;;;17.20;12.63;;;;;;;;;;5024570;28;20241;-68
2023/12/17 02:34:51;;;;;;;23.45;13.48;;;;;;;;;;5022648;28;20226;-68
2023/12/17 02:37:20;;;;;;;23.48;14.50;;;;;;;;;;5027640;28;20252;-67
2023/12/17 02:39:48;;;;;;;18.00;13.50;;;;;;;;;;5027567;28;20233;-68
2023/12/17 02:42:18;;;;;;;21.73;14.70;;;;;;;;;;5028134;28;20219;-68
2023/12/17 02:44:46;;;;;;;23.25;14.23;;;;;;;;;;5012340;28;20280;-68
2023/12/17 02:47:15;;;;;;;25.40;13.27;;;;;;;;;;5028140;28;20229;-68
2023/12/17 02:49:43;;;;;;;20.60;13.73;;;;;;;;;;5026861;28;20210;-67
2023/12/17 02:52:11;;;;;;;26.40;15.50;;;;;;;;;;5026105;28;20245;-67
2023/12/17 02:54:39;;;;;;;21.25;15.88;;;;;;;;;;5026720;28;20226;-68
2023/12/17 02:57:07;;;;;;;20.45;16.63;;;;;;;;;;5016184;28;20241;-67
2023/12/17 02:59:37;;;;;;;20.00;14.63;;;;;;;;;;5049350;28;20209;-67
2023/12/17 03:02:05;;;;;;;24.63;15.50;;;;;;;;;;5020383;28;20255;-67
2023/12/17 03:04:33;;;;;;;26.80;16.20;;;;;;;;;;5022649;28;20234;-67
2023/12/17 03:07:02;;;;;;;23.10;16.55;;;;;;;;;;5005341;28;20222;-68
2023/12/17 03:09:30;;;;;;;25.30;17.42;;;;;;;;;;5000306;28;20241;-68
2023/12/17 03:11:58;;;;;;;26.40;15.40;;;;;;;;;;5011954;28;20252;-68
2023/12/17 03:14:27;;;;;;;26.23;16.75;;;;;;;;;;5013788;28;20237;-67
2023/12/17 03:16:57;;;;;;;23.25;16.25;;;;;;;;;;5050055;28;20241;-68
2023/12/17 03:19:25;;;;;;;34.13;17.08;;;;;;;;;;5015901;28;20225;-68
2023/12/17 03:21:53;;;;;;;27.40;16.85;;;;;;;;;;5020992;28;20222;-68
2023/12/17 03:24:21;;;;;;;25.75;17.48;;;;;;;;;;5004907;28;20226;-68
2023/12/17 03:26:50;;;;;;;26.95;15.38;;;;;;;;;;5007862;28;20260;-67
2023/12/17 03:29:18;;;;;;;26.85;16.58;;;;;;;;;;5017334;28;20321;-68
2023/12/17 03:31:46;;;;;;;25.75;17.50;;;;;;;;;;5011957;28;20234;-67
2023/12/17 03:34:15;;;;;;;33.65;18.02;;;;;;;;;;5018778;28;20222;-67
2023/12/17 03:36:44;;;;;;;30.17;16.10;;;;;;;;;;5024079;28;20234;-67
2023/12/17 03:39:13;;;;;;;29.70;18.30;;;;;;;;;;5024542;28;20221;-66
2023/12/17 03:41:41;;;;;;;22.90;16.00;;;;;;;;;;5015068;28;20265;-67
2023/12/17 03:44:09;;;;;;;23.10;17.25;;;;;;;;;;5007824;28;20254;-68
2023/12/17 03:46:37;;;;;;;35.10;17.52;;;;;;;;;;5011607;28;20229;-67
2023/12/17 03:49:05;;;;;;;26.98;16.42;;;;;;;;;;5031480;28;20222;-68
2023/12/17 03:51:35;;;;;;;28.95;17.25;;;;;;;;;;5009421;28;20223;-67
2023/12/17 03:54:03;;;;;;;26.08;18.20;;;;;;;;;;5023763;28;20242;-67
2023/12/17 03:56:31;;;;;;;27.05;17.25;;;;;;;;;;5020299;28;20234;-68
2023/12/17 03:59:01;;;;;;;27.35;17.17;;;;;;;;;;5022039;28;20232;-68
2023/12/17 04:01:29;;;;;;;26.20;17.40;;;;;;;;;;5012410;28;20233;-68
2023/12/17 04:03:57;;;;;;;24.70;17.05;;;;;;;;;;5009374;28;20219;-68
2023/12/17 04:06:26;;;;;;;26.23;16.77;;;;;;;;;;5006636;28;20231;-67
2023/12/17 04:08:55;;;;;;;27.33;19.30;;;;;;;;;;5010598;28;20234;-68
2023/12/17 04:11:23;;;;;;;22.45;16.63;;;;;;;;;;5018100;28;20214;-68
2023/12/17 04:13:52;;;;;;;27.35;17.48;;;;;;;;;;5009916;28;20265;-67
2023/12/17 04:16:20;;;;;;;28.08;16.67;;;;;;;;;;5015679;28;20239;-67
2023/12/17 04:18:48;;;;;;;22.92;16.58;;;;;;;;;;5027024;28;20230;-68
2023/12/17 04:21:16;;;;;;;25.77;17.42;;;;;;;;;;5008302;28;20244;-68
2023/12/17 04:23:45;;;;;;;28.38;17.17;;;;;;;;;;5024400;28;20226;-67
2023/12/17 04:26:15;;;;;;;28.25;17.83;;;;;;;;;;5028108;28;20230;-68
2023/12/17 04:28:43;;;;;;;24.63;16.67;;;;;;;;;;5016860;28;20307;-67
2023/12/17 04:31:12;;;;;;;26.05;17.58;;;;;;;;;;5011341;28;20222;-67
2023/12/17 04:33:40;;;;;;;23.23;17.58;;;;;;;;;;5008580;28;20294;-68
2023/12/17 04:36:09;;;;;;;25.52;17.83;;;;;;;;;;5009697;28;20253;-68
2023/12/17 04:38:37;;;;;;;23.17;17.13;;;;;;;;;;5017510;28;20320;-68
2023/12/17 04:41:06;;;;;;;29.48;18.65;;;;;;;;;;5007538;28;20258;-68
2023/12/17 04:43:35;;;;;;;27.75;17.45;;;;;;;;;;5010779;28;20221;-67
2023/12/17 04:46:03;;;;;;;26.88;17.75;;;;;;;;;;5026038;28;20238;-68
2023/12/17 04:48:31;;;;;;;29.33;17.35;;;;;;;;;;5028011;28;20222;-68
2023/12/17 04:51:00;;;;;;;32.17;18.98;;;;;;;;;;5013622;28;20263;-68
2023/12/17 04:53:28;;;;;;;36.40;17.95;;;;;;;;;;5017804;28;20273;-67
2023/12/17 04:55:56;;;;;;;33.28;18.73;;;;;;;;;;5026481;28;20237;-68
2023/12/17 04:58:27;;;;;;;34.03;18.35;;;;;;;;;;5026158;28;20225;-68
2023/12/17 05:00:59;;;;;;;25.17;17.30;;;;;;;;;;5019775;28;20226;-68
2023/12/17 05:03:27;;;;;;;25.23;18.00;;;;;;;;;;5004916;28;20214;-68
2023/12/17 05:05:55;;;;;;;28.55;16.52;;;;;;;;;;5014376;28;20258;-68
2023/12/17 05:08:23;;;;;;;26.33;17.98;;;;;;;;;;5007266;28;20233;-68
2023/12/17 05:10:52;;;;;;;28.15;19.33;;;;;;;;;;5016125;28;20661;-68
2023/12/17 05:13:20;;;;;;;30.48;18.23;;;;;;;;;;5013321;28;20745;-68
2023/12/17 05:15:48;;;;;;;27.35;17.33;;;;;;;;;;5022062;28;20236;-68
2023/12/17 05:18:18;;;;;;;28.55;18.40;;;;;;;;;;4989168;28;20243;-67
2023/12/17 05:20:46;;;;;;;30.00;16.92;;;;;;;;;;5033114;28;20434;-68
2023/12/17 05:23:14;;;;;;;29.08;16.95;;;;;;;;;;5007681;28;20237;-67
2023/12/17 05:25:42;;;;;;;28.98;17.17;;;;;;;;;;5005090;28;20237;-67
2023/12/17 05:28:11;;;;;;;23.33;17.05;;;;;;;;;;5025752;28;20237;-66
2023/12/17 05:30:40;;;;;;;28.73;17.70;;;;;;;;;;5008979;28;20226;-68
2023/12/17 05:33:08;;;;;;;29.20;17.35;;;;;;;;;;5023907;28;20297;-68
2023/12/17 05:35:37;;;;;;;27.33;17.27;;;;;;;;;;5015155;28;20323;-68
2023/12/17 05:38:06;;;;;;;31.23;18.17;;;;;;;;;;5024956;28;20254;-68
2023/12/17 05:40:34;;;;;;;22.52;15.85;;;;;;;;;;5018156;28;20278;-67
2023/12/17 05:43:04;;;;;;;33.67;17.00;;;;;;;;;;5016129;28;20225;-68
2023/12/17 05:45:33;;;;;;;28.10;17.70;;;;;;;;;;5020822;28;20736;-67
2023/12/17 05:48:01;;;;;;;24.35;16.55;;;;;;;;;;5022037;28;20262;-68
2023/12/17 05:50:29;;;;;;;27.73;18.30;;;;;;;;;;5013409;28;20253;-68
2023/12/17 05:52:59;;;;;;;29.77;18.00;;;;;;;;;;5008414;28;20277;-68
2023/12/17 05:55:27;;;;;;;32.88;16.58;;;;;;;;;;5030375;28;20226;-68
2023/12/17 05:57:55;;;;;;;33.53;18.58;;;;;;;;;;5037244;28;20693;-68
2023/12/17 06:00:23;;;;;;;33.92;18.23;;;;;;;;;;5005336;28;20654;-68
2023/12/17 06:02:52;;;;;;;23.83;17.20;;;;;;;;;;5004901;28;20289;-67
2023/12/17 06:05:20;;;;;;;27.38;17.45;;;;;;;;;;5005403;28;20258;-68
2023/12/17 06:07:48;;;;;;;25.05;17.33;;;;;;;;;;5012073;28;20281;-68
2023/12/17 06:10:18;;;;;;;29.77;17.67;;;;;;;;;;5006377;28;20287;-68
2023/12/17 06:12:46;;;;;;;27.40;18.05;;;;;;;;;;5018688;28;20338;-68
2023/12/17 06:15:15;;;;;;;29.27;18.67;;;;;;;;;;5002837;28;20301;-67
2023/12/17 06:17:43;;;;;;;32.83;18.65;;;;;;;;;;5010353;28;20287;-68
2023/12/17 06:20:12;;;;;;;28.58;18.42;;;;;;;;;;5003136;28;20339;-68
2023/12/17 06:22:40;;;;;;;31.02;18.90;;;;;;;;;;5002260;28;20344;-68
2023/12/17 06:25:09;;;;;;;33.03;18.05;;;;;;;;;;5002811;28;20697;-68
2023/12/17 06:27:38;;;;;;;29.50;18.58;;;;;;;;;;5004559;28;20265;-67
2023/12/17 06:30:07;;;;;;;26.70;18.10;;;;;;;;;;5008988;28;20286;-68
2023/12/17 06:32:36;;;;;;;27.70;18.60;;;;;;;;;;5001378;28;20281;-67
2023/12/17 06:35:05;;;;;;;27.38;18.08;;;;;;;;;;5005122;28;20306;-67
2023/12/17 06:37:33;;;;;;;28.50;18.10;;;;;;;;;;5002670;28;20267;-68
2023/12/17 06:40:02;;;;;;;41.95;25.05;;;;;;;;;;4991089;28;20278;-67
2023/12/17 06:42:30;;;;;;;30.33;18.75;;;;;;;;;;5003824;28;20278;-68
2023/12/17 06:44:59;;;;;;;29.38;18.85;;;;;;;;;;5000933;28;20274;-67
2023/12/17 06:47:28;;;;;;;26.85;17.88;;;;;;;;;;5002271;28;20302;-68
2023/12/17 06:49:56;;;;;;;31.50;17.83;;;;;;;;;;5012959;28;20288;-68
2023/12/17 06:52:24;;;;;;;28.15;18.30;;;;;;;;;;4994153;28;20258;-68
2023/12/17 06:54:53;;;;;;;29.25;19.45;;;;;;;;;;4997991;28;20279;-68
2023/12/17 06:57:21;;;;;;;32.00;18.02;;;;;;;;;;5003652;28;20298;-69
2023/12/17 06:59:49;;;;;;;29.15;18.83;;;;;;;;;;4998470;28;20336;-68
2023/12/17 07:02:19;;;;;;;29.55;17.20;;;;;;;;;;5009092;28;20266;-68
2023/12/17 07:04:47;;;;;;;32.88;19.42;;;;;;;;;;4998166;28;20262;-68
2023/12/17 07:07:15;;;;;;;30.58;18.80;;;;;;;;;;4999476;28;20195;-68
2023/12/17 07:09:44;;;;;;;27.75;18.05;;;;;;;;;;4999005;28;20282;-68
2023/12/17 07:12:12;;;;;;;38.67;22.60;;;;;;;;;;5007002;28;20270;-68
2023/12/17 07:14:40;;;;;;;57.00;33.35;;;;;;;;;;5005566;28;20310;-68
2023/12/17 07:17:08;;;;;;;30.08;18.55;;;;;;;;;;5000594;28;20645;-68
2023/12/17 07:19:38;;;;;;;29.17;21.23;;;;;;;;;;4985428;28;20303;-68
2023/12/17 07:22:06;;;;;;;48.40;29.85;;;;;;;;;;4994173;28;20279;-68
2023/12/17 07:24:34;;;;;;;38.85;22.88;;;;;;;;;;4987704;28;20301;-68
2023/12/17 07:27:03;;;;;;;37.90;23.80;;;;;;;;;;4993046;28;20276;-68
2023/12/17 07:29:31;;;;;;;35.50;22.58;;;;;;;;;;4986557;28;20278;-68
2023/12/17 07:31:59;;;;;;;29.70;20.60;;;;;;;;;;4997028;28;20274;-68
2023/12/17 07:34:27;;;;;;;25.42;18.92;;;;;;;;;;4995970;28;20274;-67
2023/12/17 07:36:57;;;;;;;31.23;18.90;;;;;;;;;;4997743;28;20266;-68
2023/12/17 07:39:25;;;;;;;35.08;21.02;;;;;;;;;;5000203;28;20198;-68
2023/12/17 07:41:53;;;;;;;37.15;24.08;;;;;;;;;;4991833;28;20310;-68
2023/12/17 07:44:22;;;;;;;30.17;20.45;;;;;;;;;;4992320;28;20265;-68
2023/12/17 07:46:50;;;;;;;36.88;21.67;;;;;;;;;;4992840;28;20250;-68
2023/12/17 07:49:18;;;;;;;37.75;21.05;;;;;;;;;;4998212;28;20274;-68
2023/12/17 07:51:48;;;;;;;27.23;18.95;;;;;;;;;;4997683;28;20247;-68
2023/12/17 07:54:18;;;;;;;30.77;20.35;;;;;;;;;;4995454;28;20628;-67
2023/12/17 07:56:46;;;;;;;54.90;29.10;;;;;;;;;;4992811;28;20288;-68
2023/12/17 07:59:14;;;;;;;39.35;22.38;;;;;;;;;;5005033;28;20286;-68
2023/12/17 08:01:42;;;;;;;34.63;21.23;;;;;;;;;;4991944;28;20258;-68
2023/12/17 08:04:10;;;;;;;34.03;21.45;;;;;;;;;;5005397;28;20282;-66
2023/12/17 08:06:39;;;;;;;31.15;21.83;;;;;;;;;;5005588;28;20269;-67
2023/12/17 08:09:07;;;;;;;40.58;22.63;;;;;;;;;;5003641;28;20418;-68
2023/12/17 08:11:36;;;;;;;29.33;19.23;;;;;;;;;;5002636;28;20289;-68
2023/12/17 08:14:05;;;;;;;36.30;21.50;;;;;;;;;;5015324;28;20632;-68
2023/12/17 08:16:33;;;;;;;31.40;19.58;;;;;;;;;;5031624;28;20250;-68
2023/12/17 08:19:01;;;;;;;36.75;23.42;;;;;;;;;;5020598;28;20281;-68
2023/12/17 08:21:29;;;;;;;34.92;22.67;;;;;;;;;;5007457;28;20648;-68
2023/12/17 08:23:58;;;;;;;32.00;22.65;;;;;;;;;;5010104;28;20270;-68
2023/12/17 08:26:26;;;;;;;32.70;22.30;;;;;;;;;;5004886;28;20262;-68
2023/12/17 08:28:56;;;;;;;25.73;20.02;;;;;;;;;;5012827;28;20291;-68
2023/12/17 08:31:24;;;;;;;29.10;20.83;;;;;;;;;;5013830;28;20282;-68
2023/12/17 08:33:52;;;;;;;36.10;23.10;;;;;;;;;;5051696;28;20254;-68
2023/12/17 08:36:22;;;;;;;32.95;20.77;;;;;;;;;;5079614;28;20299;-68
2023/12/17 08:38:50;;;;;;;29.80;22.33;;;;;;;;;;5009772;28;20259;-68
2023/12/17 08:41:18;;;;;;;30.08;20.80;;;;;;;;;;4999846;28;20357;-68
2023/12/17 08:43:46;;;;;;;29.00;20.85;;;;;;;;;;4996895;28;20587;-68
2023/12/17 08:46:16;;;;;;;32.80;20.85;;;;;;;;;;4997867;28;20250;-68
2023/12/17 08:48:44;;;;;;;28.70;20.58;;;;;;;;;;5012769;28;20281;-68
2023/12/17 08:51:12;;;;;;;41.35;25.35;;;;;;;;;;5020832;28;20277;-67
2023/12/17 08:53:41;;;;;;;31.77;20.52;;;;;;;;;;5003982;28;20272;-67
2023/12/17 08:56:10;;;;;;;25.05;20.02;;;;;;;;;;5001043;28;20307;-68
2023/12/17 08:58:38;;;;;;;24.83;19.48;;;;;;;;;;4990200;28;20287;-68
2023/12/17 09:01:07;;;;;;;27.67;18.40;;;;;;;;;;5002007;28;20279;-68
2023/12/17 09:03:36;;;;;;;28.02;19.42;;;;;;;;;;4986573;28;20722;-67
2023/12/17 09:06:04;;;;;;;29.02;19.05;;;;;;;;;;4991092;28;20692;-68
2023/12/17 09:08:33;;;;;;;27.60;18.40;;;;;;;;;;4989959;28;20283;-68
2023/12/17 09:11:01;;;;;;;26.65;18.90;;;;;;;;;;5001783;28;20202;-68
2023/12/17 09:13:29;;;;;;;28.50;17.85;;;;;;;;;;4994970;28;20278;-68
2023/12/17 09:15:58;;;;;;;30.05;18.63;;;;;;;;;;5018296;28;20309;-69
2023/12/17 09:18:26;;;;;;;31.23;19.02;;;;;;;;;;5013953;28;20255;-69
2023/12/17 09:20:56;;;;;;;27.20;17.65;;;;;;;;;;5009982;28;20202;-69
2023/12/17 09:23:24;;;;;;;26.98;17.38;;;;;;;;;;5002172;28;20274;-68
2023/12/17 09:25:52;;;;;;;23.27;18.05;;;;;;;;;;5009351;28;20250;-68
2023/12/17 09:28:20;;;;;;;26.90;17.40;;;;;;;;;;5008842;28;20254;-68
2023/12/17 09:30:49;;;;;;;26.67;16.70;;;;;;;;;;4997722;28;20266;-68
2023/12/17 09:33:17;;;;;;;24.30;17.13;;;;;;;;;;5014878;28;20261;-68
2023/12/17 09:35:45;;;;;;;20.35;15.30;;;;;;;;;;5010261;28;20270;-68
2023/12/17 09:38:16;;;;;;;26.20;16.30;;;;;;;;;;5014984;28;20285;-68
2023/12/17 09:40:46;;;;;;;25.17;16.95;;;;;;;;;;5002926;28;20285;-67
2023/12/17 09:43:15;;;;;;;22.35;15.45;;;;;;;;;;4997947;28;20705;-68
2023/12/17 09:45:46;;;;;;;20.35;14.00;;;;;;;;;;5081696;28;20252;-68
2023/12/17 09:48:14;;;;;;;19.77;15.70;;;;;;;;;;5027079;28;20254;-68
2023/12/17 09:50:43;;;;;;;23.42;15.07;;;;;;;;;;5003679;28;20265;-67
2023/12/17 09:53:11;;;;;;;24.05;15.98;;;;;;;;;;5003771;28;20281;-67
2023/12/17 09:55:41;;;;;;;19.17;14.70;;;;;;;;;;4999039;28;20274;-69
2023/12/17 09:58:09;;;;;;;21.27;15.48;;;;;;;;;;5002065;28;20309;-68
2023/12/17 10:00:37;;;;;;;23.42;16.23;;;;;;;;;;5038224;28;20251;-68
2023/12/17 10:03:06;;;;;;;17.27;14.65;;;;;;;;;;5045005;28;20290;-68
2023/12/17 10:05:34;;;;;;;27.20;15.90;;;;;;;;;;4999874;28;20653;-68
2023/12/17 10:08:03;;;;;;;21.73;16.08;;;;;;;;;;5011446;28;20281;-68
2023/12/17 10:10:31;;;;;;;19.75;15.35;;;;;;;;;;5023958;28;20809;-66
2023/12/17 10:13:01;;;;;;;19.75;14.70;;;;;;;;;;5004078;28;20273;-68
2023/12/17 10:15:35;;;;;;;19.17;14.38;;;;;;;;;;5050359;28;20299;-68
2023/12/17 10:18:03;;;;;;;19.50;14.40;;;;;;;;;;5079394;28;20595;-68
2023/12/17 10:20:32;;;;;;;19.23;13.68;;;;;;;;;;5020641;28;20273;-68
2023/12/17 10:23:02;;;;;;;20.85;13.35;;;;;;;;;;5027894;28;20210;-68
2023/12/17 10:25:31;;;;;;;19.17;13.48;;;;;;;;;;5002975;28;20283;-67
2023/12/17 10:28:01;;;;;;;21.00;14.32;;;;;;;;;;5008226;28;20255;-68
2023/12/17 10:30:30;;;;;;;21.30;12.98;;;;;;;;;;5004570;28;20257;-68
2023/12/17 10:32:59;;;;;;;18.85;12.63;;;;;;;;;;5047414;28;20245;-68
2023/12/17 10:35:28;;;;;;;14.90;12.27;;;;;;;;;;5079281;28;20251;-68
2023/12/17 10:37:59;;;;;;;13.90;12.15;;;;;;;;;;5022594;28;20237;-68
2023/12/17 10:40:27;;;;;;;16.90;12.48;;;;;;;;;;5012586;28;20309;-68
2023/12/17 10:42:57;;;;;;;13.88;11.40;;;;;;;;;;5006770;28;20245;-68
2023/12/17 10:45:27;;;;;;;15.38;11.05;;;;;;;;;;5006494;28;20238;-68
2023/12/17 10:47:57;;;;;;;15.70;12.30;;;;;;;;;;5008384;28;20191;-68
2023/12/17 10:50:26;;;;;;;13.30;11.50;;;;;;;;;;5025668;28;20234;-68
2023/12/17 10:52:54;;;;;;;13.70;11.00;;;;;;;;;;5082448;28;20227;-68
2023/12/17 10:55:23;;;;;;;18.15;10.30;;;;;;;;;;5036032;28;20210;-68
2023/12/17 10:57:52;;;;;;;13.80;11.07;;;;;;;;;;4996119;28;20226;-68
2023/12/17 11:00:22;;;;;;;14.52;10.55;;;;;;;;;;4998456;28;20227;-68
2023/12/17 11:02:53;;;;;;;15.68;11.18;;;;;;;;;;4996809;28;20242;-68
2023/12/17 11:05:21;;;;;;;12.32;9.52;;;;;;;;;;5001936;28;20226;-68
2023/12/17 11:07:49;;;;;;;17.58;10.70;;;;;;;;;;4997206;28;20211;-68
2023/12/17 11:10:18;;;;;;;12.25;9.20;;;;;;;;;;5012841;28;20245;-68
2023/12/17 11:12:48;;;;;;;10.82;9.73;;;;;;;;;;5001330;28;20223;-68
2023/12/17 11:15:21;;;;;;;11.73;10.20;;;;;;;;;;5006487;28;20230;-68
2023/12/17 11:17:53;;;;;;;14.43;10.07;;;;;;;;;;5007554;28;20222;-68
2023/12/17 11:20:22;;;;;;;10.43;8.73;;;;;;;;;;4990710;28;20223;-67
2023/12/17 11:22:51;;;;;;;11.20;10.13;;;;;;;;;;5010768;28;20264;-68
2023/12/17 11:25:20;;;;;;;14.88;9.68;;;;;;;;;;5003126;28;20246;-68
2023/12/17 11:27:50;;;;;;;12.15;10.52;;;;;;;;;;5091337;28;20227;-68
2023/12/17 11:30:28;;;;;;;13.73;10.13;;;;;;;;;;5110489;28;20242;-68
2023/12/17 11:32:57;;;;;;;12.60;9.98;;;;;;;;;;5110055;28;20203;-68
2023/12/17 11:35:28;;;;;;;10.90;8.52;;;;;;;;;;5059518;28;20227;-67
2023/12/17 11:37:56;;;;;;;10.88;9.77;;;;;;;;;;5007891;28;20214;-68
2023/12/17 11:40:26;;;;;;;17.48;12.82;;;;;;;;;;5014855;28;20258;-68
2023/12/17 11:42:57;;;;;;;17.45;12.75;;;;;;;;;;5014487;28;20221;-68
2023/12/17 11:45:32;;;;;;;11.57;10.13;;;;;;;;;;5087110;28;20630;-68
2023/12/17 11:48:10;;;;;;;13.32;9.88;;;;;;;;;;5033522;28;20232;-68
2023/12/17 11:50:44;;;;;;;12.70;9.95;;;;;;;;;;5025988;28;20229;-68
2023/12/17 11:53:13;;;;;;;11.20;10.10;;;;;;;;;;5024815;28;20218;-68
2023/12/17 11:55:42;;;;;;;13.32;10.15;;;;;;;;;;5026475;28;20233;-67
2023/12/17 11:58:11;;;;;;;11.40;10.50;;;;;;;;;;5006366;28;20234;-68
2023/12/17 12:00:39;;;;;;;15.00;11.02;;;;;;;;;;5008316;28;20244;-68
2023/12/17 12:03:07;;;;;;;13.27;11.98;;;;;;;;;;5047083;28;20237;-68
2023/12/17 12:05:36;;;;;;;12.30;11.10;;;;;;;;;;5086106;28;20202;-68
2023/12/17 12:08:06;;;;;;;12.10;10.90;;;;;;;;;;5014829;28;20252;-68
2023/12/17 12:10:35;;;;;;;15.45;13.18;;;;;;;;;;5005463;28;20219;-68
2023/12/17 12:13:03;;;;;;;13.18;11.88;;;;;;;;;;5005492;28;20235;-68
2023/12/17 12:15:32;;;;;;;13.95;12.65;;;;;;;;;;5007290;28;20226;-68
2023/12/17 12:18:00;;;;;;;14.23;12.80;;;;;;;;;;5007016;28;20247;-68
2023/12/17 12:20:35;;;;;;;13.87;12.43;;;;;;;;;;5004001;28;20226;-68
2023/12/17 12:23:10;;;;;;;13.70;12.57;;;;;;;;;;5002170;28;20626;-68
2023/12/17 12:25:39;;;;;;;13.57;12.57;;;;;;;;;;4999533;28;20614;-68
2023/12/17 12:28:07;;;;;;;13.83;12.53;;;;;;;;;;5010973;28;20250;-68
2023/12/17 12:30:36;;;;;;;13.13;12.10;;;;;;;;;;4998573;28;20707;-68
2023/12/17 12:33:11;;;;;;;13.53;12.23;;;;;;;;;;4998937;28;20624;-68
2023/12/17 12:35:40;;;;;;;14.40;13.00;;;;;;;;;;5021175;28;20624;-68
2023/12/17 12:38:19;;;;;;;13.75;12.55;;;;;;;;;;5015418;28;20717;-68
2023/12/17 12:40:48;;;;;;;13.20;12.17;;;;;;;;;;5008235;28;20276;-68
2023/12/17 12:43:17;;;;;;;15.07;13.87;;;;;;;;;;5018508;28;20655;-68
2023/12/17 12:45:46;;;;;;;14.73;13.53;;;;;;;;;;5033499;28;20649;-69
2023/12/17 12:48:17;;;;;;;15.30;13.87;;;;;;;;;;5007270;28;20630;-68
2023/12/17 12:50:46;;;;;;;18.93;17.20;;;;;;;;;;5007026;28;20677;-69
2023/12/17 12:53:17;;;;;;;22.87;20.83;;;;;;;;;;5007758;28;21199;-68
2023/12/17 12:55:46;;;;;;;24.07;21.70;;;;;;;;;;5019153;28;20635;-68
2023/12/17 12:58:15;;;;;;;15.63;14.43;;;;;;;;;;5026459;28;20773;-68
2023/12/17 13:00:44;;;;;;;18.87;17.47;;;;;;;;;;5026471;28;20901;-68
2023/12/17 13:03:12;;;;;;;18.90;17.20;;;;;;;;;;5022331;28;20667;-68
2023/12/17 13:05:40;;;;;;;17.27;15.80;;;;;;;;;;5017092;28;20636;-68
2023/12/17 13:08:09;;;;;;;17.00;15.60;;;;;;;;;;5024857;28;21013;-68
2023/12/17 13:10:37;;;;;;;17.90;16.45;;;;;;;;;;5025056;28;20680;-68
2023/12/17 13:13:07;;;;;;;16.08;14.50;;;;;;;;;;5023905;28;20297;-68
2023/12/17 13:15:35;;;;;;;15.95;14.40;;;;;;;;;;5023609;28;20266;-68
2023/12/17 13:18:03;;;;;;;16.00;14.13;;;;;;;;;;5024160;28;20301;-68
2023/12/17 13:20:31;;;;;;;13.50;12.10;;;;;;;;;;5025766;28;20233;-68
2023/12/17 13:23:00;;;;;;;13.82;12.30;;;;;;;;;;5013347;28;20271;-68
2023/12/17 13:25:30;;;;;;;15.57;11.32;;;;;;;;;;5006491;28;20230;-68
2023/12/17 13:27:58;;;;;;;18.65;13.32;;;;;;;;;;5005686;28;20210;-68
2023/12/17 13:30:29;;;;;;;15.02;11.05;;;;;;;;;;5004161;28;20283;-69
2023/12/17 13:33:00;;;;;;;18.13;12.43;;;;;;;;;;5003561;28;20681;-68
2023/12/17 13:35:28;;;;;;;18.08;12.82;;;;;;;;;;5002939;28;20324;-68
2023/12/17 13:37:56;;;;;;;15.98;12.60;;;;;;;;;;5007823;28;20282;-68
2023/12/17 13:40:25;;;;;;;17.63;12.02;;;;;;;;;;5081415;28;20647;-67
2023/12/17 13:42:53;;;;;;;13.57;11.25;;;;;;;;;;5027150;28;20278;-68
2023/12/17 13:45:21;;;;;;;15.95;11.85;;;;;;;;;;5033226;28;20297;-69
2023/12/17 13:47:51;;;;;;;21.42;12.00;;;;;;;;;;5061822;28;20194;-65
2023/12/17 13:50:20;;;;;;;23.42;13.93;;;;;;;;;;5034620;28;20232;-66
2023/12/17 13:52:48;;;;;;;15.57;12.38;;;;;;;;;;5007555;28;20203;-66
2023/12/17 13:55:16;;;;;;;17.30;11.98;;;;;;;;;;5010871;28;20203;-66
2023/12/17 13:57:44;;;;;;;13.63;12.18;;;;;;;;;;5006818;28;20562;-66
2023/12/17 14:00:14;;;;;;;18.58;12.73;;;;;;;;;;5002558;28;20239;-66
2023/12/17 14:02:44;;;;;;;19.40;12.20;;;;;;;;;;4991791;28;20246;-67
2023/12/17 14:05:13;;;;;;;18.92;13.27;;;;;;;;;;5012053;28;20222;-68
2023/12/17 14:07:41;;;;;;;22.95;15.63;;;;;;;;;;5031139;28;20205;-66
2023/12/17 14:10:11;;;;;;;23.73;12.90;;;;;;;;;;5018596;28;20230;-65
2023/12/17 14:12:39;;;;;;;19.80;13.88;;;;;;;;;;5037168;28;20250;-66
2023/12/17 14:15:09;;;;;;;18.05;14.15;;;;;;;;;;5028071;28;20237;-65
2023/12/17 14:17:37;;;;;;;18.58;14.45;;;;;;;;;;5030408;28;20246;-65
2023/12/17 14:20:05;;;;;;;20.48;13.88;;;;;;;;;;5030946;28;20226;-65
2023/12/17 14:22:36;;;;;;;15.65;12.73;;;;;;;;;;5017681;28;20211;-66
2023/12/17 14:25:08;;;;;;;17.33;14.98;;;;;;;;;;5013728;28;20215;-65
2023/12/17 14:27:38;;;;;;;24.50;15.30;;;;;;;;;;5014132;28;20205;-66